M I D A S
Marine Information and Data Acquisition System
Tripno 374 of the Zeeleeuw from 2002-12-23 07:53:17 to 2002-12-23 15:56:21
Back to CruiseResearch ActivitiesStationsMapUnderway DataData graphs

EquipmentUnitsComment
TimeDGPSUTC
LatitudeDGPSDM.mWGS84
LongitudeDGPSDM.mWGS84
HeadingGyrodeg 
SOGDGPSknotsSpeed over ground
COGDGPSdegCourse over ground
DepthEcho soundermeters200 kHz
Missing or incorrect values are displayed as -999
Navigation data collected by the RV Zeeleeuw from 2002-12-23 07:53:17 to 2002-12-23 15:56:21
Time Latitude Longitude Heading SOG COG Depth
2002-12-23 07:54:18 51°13.633 2°55.999 111.3 5.4 292 11.1
2002-12-23 07:55:18 51°13.665 2°55.843 103.3 5.5 285.6 8.3
2002-12-23 07:56:18 51°13.674 2°55.77 53.8 0.6 308.8 9.7
2002-12-23 07:57:18 51°13.707 2°55.755 340.2 3.7 330.8 11.4
2002-12-23 07:58:18 51°13.793 2°55.667 337.2 7.4 329.6 9.2
2002-12-23 07:59:18 51°13.915 2°55.571 340.5 8.4 335.4 9.3
2002-12-23 08:00:18 51°14.049 2°55.473 340.8 9.9 335 9
2002-12-23 08:01:18 51°14.216 2°55.322 329.2 12 324 9
2002-12-23 08:02:18 51°14.358 2°55.074 317 13.4 309.8 9.1
2002-12-23 08:03:18 51°14.532 2°54.84 339.3 13.7 328.3 8.3
2002-12-23 08:04:18 51°14.743 2°54.751 4.8 12.9 352.4 7.8
2002-12-23 08:05:18 51°14.95 2°54.678 349 13 336.4 7.5
2002-12-23 08:06:18 51°15.152 2°54.626 14.3 11.9 3.3 6.9
2002-12-23 08:07:18 51°15.35 2°54.61 349.8 12.5 339.1 7.7
2002-12-23 08:08:18 51°15.556 2°54.532 5.2 12.8 353.8 8.1
2002-12-23 08:09:18 51°15.764 2°54.455 8.8 12.5 355.6 8.9
2002-12-23 08:10:18 51°15.963 2°54.47 14 11.8 2.3 9.6
2002-12-23 08:11:18 51°16.121 2°54.485 22.3 7.3 7.7 10.2
2002-12-23 08:12:18 51°16.194 2°54.418 311.2 5 295.1 10.4
2002-12-23 08:13:18 51°16.21 2°54.309 323.2 2 272.7 10.5
2002-12-23 08:14:18 51°16.225 2°54.267 3.5 4.3 337 10.6
2002-12-23 08:15:18 51°16.264 2°54.258 41 0.9 284 10.7
2002-12-23 08:16:18 51°16.267 2°54.24 53 0.5 294.8 10.7
2002-12-23 08:17:18 51°16.271 2°54.234 65.8 0.2 312 10.7
2002-12-23 08:18:19 51°16.271 2°54.23 72.3 0.2 245 10.6
2002-12-23 08:19:18 51°16.268 2°54.225 79.5 0.2 212 10.7
2002-12-23 08:20:18 51°16.264 2°54.222 86.3 0.3 191.9 10.7
2002-12-23 08:21:18 51°16.258 2°54.221 91.7 0.4 184.1 10.7
2002-12-23 08:22:18 51°16.251 2°54.221 94.3 0.5 182.6 10.6
2002-12-23 08:23:18 51°16.244 2°54.219 90.5 0.4 183.6 10.6
2002-12-23 08:24:18 51°16.238 2°54.217 84.7 0.3 184.8 10.6
2002-12-23 08:25:18 51°16.238 2°54.225 67.7 1.5 62 10.6
2002-12-23 08:26:18 51°16.306 2°54.207 334 6.7 320.1 10.6
2002-12-23 08:27:18 51°16.4 2°53.967 313.3 12.7 302.3 10.7
2002-12-23 08:28:18 51°16.538 2°53.698 325 13.2 313.6 10.8
2002-12-23 08:29:18 51°16.69 2°53.448 324.7 13.1 314.3 10.3
2002-12-23 08:30:18 51°16.841 2°53.201 323.7 12.9 313.7 8.7
2002-12-23 08:31:18 51°16.981 2°52.964 321.3 12.3 311.7 7.1
2002-12-23 08:32:18 51°17.133 2°52.724 330.3 13 320.4 8.4
2002-12-23 08:33:22 51°17.302 2°52.483 327.2 12.8 317.6 8.8
2002-12-23 08:34:22 51°17.454 2°52.242 325.2 12.8 315.1 9.2
2002-12-23 08:35:22 51°17.606 2°52.003 325.5 12.7 315.6 9.1
2002-12-23 08:36:22 51°17.756 2°51.766 326.2 12.7 315.9 9
2002-12-23 08:37:22 51°17.909 2°51.531 326.8 12.8 316.7 9.3
2002-12-23 08:38:22 51°18.07 2°51.309 329.7 12.8 319.7 10.3
2002-12-23 08:39:22 51°18.229 2°51.093 333.3 11.6 321.8 11.5
2002-12-23 08:40:22 51°18.349 2°50.991 2.5 6.5 346.4 12.2
2002-12-23 08:41:22 51°18.438 2°50.971 6.3 4.6 349.3 12.5
2002-12-23 08:42:22 51°18.476 2°50.958 41.7 0.8 347.2 12.7
2002-12-23 08:43:22 51°18.486 2°50.959 52.8 0.5 18.8 12.7
2002-12-23 08:44:22 51°18.493 2°50.965 54.7 0.5 31.5 12.8
2002-12-23 08:45:22 51°18.5 2°50.971 53.8 0.6 28.6 12.8
2002-12-23 08:46:22 51°18.507 2°50.977 54 0.2 337.8 12.9
2002-12-23 08:47:22 51°18.507 2°50.973 58.5 0.2 249.6 12.7
2002-12-23 08:48:22 51°18.505 2°50.966 60.7 0.3 237.5 12.8
2002-12-23 08:49:22 51°18.501 2°50.955 62.5 0.5 236.5 12.9
2002-12-23 08:50:22 51°18.495 2°50.945 63.2 0.5 233.9 12.8
2002-12-23 08:51:22 51°18.489 2°50.932 63.3 0.6 229.5 12.8
2002-12-23 08:52:22 51°18.483 2°50.919 65.2 0.7 226.8 12.8
2002-12-23 08:53:23 51°18.474 2°50.904 66.5 0.8 229.3 12.8
2002-12-23 08:54:22 51°18.466 2°50.889 66.2 0.7 228.1 12.8
2002-12-23 08:55:22 51°18.459 2°50.876 67.3 0.6 228.4 12.8
2002-12-23 08:56:22 51°18.452 2°50.865 70.3 0.6 222.2 12.7
2002-12-23 08:57:22 51°18.444 2°50.855 75.5 0.6 214 12.8
2002-12-23 08:58:22 51°18.436 2°50.847 81.2 0.6 207.1 12.8
2002-12-23 08:59:22 51°18.426 2°50.841 85.7 0.7 196.8 12.8
2002-12-23 09:00:22 51°18.418 2°50.908 77.3 6.4 84.6 12.7
2002-12-23 09:01:22 51°18.487 2°51.173 70.5 12.2 67.6 12.4
2002-12-23 09:02:23 51°18.557 2°51.49 74.8 12.5 72.6 12.1
2002-12-23 09:03:22 51°18.619 2°51.805 74.8 12.7 73 11.6
2002-12-23 09:04:22 51°18.681 2°52.127 75 12.7 72.9 11.2
2002-12-23 09:05:22 51°18.745 2°52.446 73.3 12.7 71.3 10.8
2002-12-23 09:06:23 51°18.808 2°52.773 76.2 12.7 74.3 10.6
2002-12-23 09:07:22 51°18.872 2°53.088 76 12.7 73.5 10.5
2002-12-23 09:08:22 51°18.933 2°53.41 75.5 12.8 73.3 10.5
2002-12-23 09:09:22 51°18.997 2°53.733 74.8 12.8 72.5 10.5
2002-12-23 09:10:22 51°19.065 2°54.053 74.5 12.6 72.1 10.5
2002-12-23 09:11:22 51°19.13 2°54.372 76.3 12.6 73.8 10.5
2002-12-23 09:12:22 51°19.185 2°54.696 77.2 12.7 75 10.5
2002-12-23 09:13:22 51°19.247 2°55.019 74.7 12.7 72 10.5
2002-12-23 09:14:22 51°19.312 2°55.338 75.7 12.7 73.2 10.4
2002-12-23 09:15:22 51°19.374 2°55.658 76.2 12.6 73.1 10.3
2002-12-23 09:16:22 51°19.439 2°55.976 73.8 12.7 70.8 10.1
2002-12-23 09:17:22 51°19.505 2°56.294 74.8 12.6 71.5 10
2002-12-23 09:18:22 51°19.572 2°56.609 75.5 12.6 72 9.8
2002-12-23 09:19:23 51°19.639 2°56.93 74.7 12.4 70.9 9.8
2002-12-23 09:20:22 51°19.709 2°57.236 74.7 12.4 70.7 9.7
2002-12-23 09:21:22 51°19.774 2°57.551 75.8 12.4 72.1 9.6
2002-12-23 09:22:23 51°19.839 2°57.868 72.5 12.4 68.5 9.4
2002-12-23 09:23:22 51°19.904 2°58.171 73 12.3 68.9 9.4
2002-12-23 09:24:22 51°19.978 2°58.472 74.5 12.1 70.1 9.3
2002-12-23 09:25:22 51°20.053 2°58.769 70.8 12 65.7 9.3
2002-12-23 09:26:22 51°20.13 2°59.062 73.5 12 68.4 9.3
2002-12-23 09:27:23 51°20.205 2°59.361 71.7 11.9 66.3 9.1
2002-12-23 09:28:22 51°20.279 2°59.648 75.2 11.9 69.8 9.1
2002-12-23 09:29:23 51°20.357 2°59.944 72.3 12 66.4 9
2002-12-23 09:30:23 51°20.437 3°0.232 73.8 11.8 67.8 9
2002-12-23 09:31:22 51°20.514 3°0.515 73.3 11.8 66.6 9
2002-12-23 09:32:23 51°20.591 3°0.812 73 11.9 66.7 9.1
2002-12-23 09:33:22 51°20.671 3°1.094 73.5 12 67.1 9.2
2002-12-23 09:34:22 51°20.745 3°1.388 74.2 12 68.2 9.2
2002-12-23 09:35:22 51°20.823 3°1.677 73.8 11.8 67.8 9.2
2002-12-23 09:36:22 51°20.901 3°1.964 72.2 11.8 65.5 9.4
2002-12-23 09:37:23 51°20.982 3°2.259 74 12 68.1 9.4
2002-12-23 09:38:23 51°21.06 3°2.552 71.5 12 66 9.4
2002-12-23 09:39:22 51°21.135 3°2.841 72.8 12 67.6 9.5
2002-12-23 09:40:22 51°21.21 3°3.134 73.7 11.9 68.7 9.5
2002-12-23 09:41:22 51°21.287 3°3.425 72.7 11.9 67.1 9.6
2002-12-23 09:42:23 51°21.363 3°3.728 73.7 12.1 68.3 9.6
2002-12-23 09:43:23 51°21.443 3°4.024 73.3 12 67.2 9.7
2002-12-23 09:44:22 51°21.494 3°4.328 80.3 12 76.3 9.7
2002-12-23 09:45:22 51°21.543 3°4.633 80.2 11.9 76 9.8
2002-12-23 09:46:22 51°21.591 3°4.945 80.7 12.1 76.2 9.9
2002-12-23 09:47:22 51°21.638 3°5.257 79.8 12.3 74.8 9.9
2002-12-23 09:48:22 51°21.692 3°5.572 79.7 12.4 74.9 9.9
2002-12-23 09:49:22 51°21.742 3°5.894 80.2 12.5 75 10
2002-12-23 09:50:22 51°21.795 3°6.215 83.2 12.5 78.5 10.2
2002-12-23 09:51:22 51°21.841 3°6.539 80.8 12.5 75.7 10.3
2002-12-23 09:52:22 51°21.887 3°6.861 80.7 12.4 75.9 10.4
2002-12-23 09:53:22 51°21.933 3°7.182 82.8 12.4 78.1 10.5
2002-12-23 09:54:23 51°21.976 3°7.506 82.5 12.3 77.3 10.7
2002-12-23 09:55:22 51°22.019 3°7.821 81 12.4 76.1 10.7
2002-12-23 09:56:22 51°22.069 3°8.143 81.3 12.5 76.2 10.8
2002-12-23 09:57:22 51°22.116 3°8.468 81.2 12.4 75.3 11
2002-12-23 09:58:22 51°22.163 3°8.79 81.3 12.5 76.5 11.2
2002-12-23 09:59:22 51°22.209 3°9.116 83.2 12.6 77.9 11.6
2002-12-23 10:00:22 51°22.255 3°9.44 82 12.5 76.2 12
2002-12-23 10:01:23 51°22.305 3°9.77 83 12.6 76.9 12.4
2002-12-23 10:02:22 51°22.344 3°10.093 85.2 12.6 79.9 12.9
2002-12-23 10:03:22 51°22.388 3°10.424 83.2 12.9 76.8 -999
2002-12-23 10:04:23 51°22.432 3°10.764 86.3 12.8 80.4 -999
2002-12-23 10:05:22 51°22.461 3°11.097 88 12.8 81.9 12
2002-12-23 10:06:22 51°22.493 3°11.43 88.2 12.6 82.2 -999
2002-12-23 10:07:23 51°22.524 3°11.769 86.8 12.8 80.6 13.8
2002-12-23 10:08:22 51°22.557 3°12.098 86.8 12.7 80.6 13.2
2002-12-23 10:09:23 51°22.589 3°12.437 87.5 12.8 81.7 12.7
2002-12-23 10:10:22 51°22.618 3°12.756 87.3 10.8 81.5 12.4
2002-12-23 10:11:22 51°22.65 3°12.963 81.3 6.4 74.3 12
2002-12-23 10:12:23 51°22.64 3°13.094 114.3 4 112.6 11.2
2002-12-23 10:13:22 51°22.616 3°13.168 117.3 2.6 119.6 11.7
2002-12-23 10:14:22 51°22.608 3°13.17 109.2 0.5 237 11.5
2002-12-23 10:15:22 51°22.606 3°13.163 93.7 0.1 254.1 11.8
2002-12-23 10:16:22 51°22.609 3°13.159 67 0.4 340.6 11.8
2002-12-23 10:17:22 51°22.617 3°13.155 52.3 0.7 347.1 11.8
2002-12-23 10:18:22 51°22.63 3°13.152 52.7 0.8 351.3 11.7
2002-12-23 10:19:26 51°22.642 3°13.15 61.3 0.7 359.2 11.7
2002-12-23 10:20:26 51°22.652 3°13.151 68 0.5 9.1 11.7
2002-12-23 10:21:27 51°22.661 3°13.154 74.7 0.5 18.9 11.7
2002-12-23 10:22:26 51°22.666 3°13.159 81.2 0.4 33.7 11.7
2002-12-23 10:23:26 51°22.672 3°13.164 80.7 0.4 31.6 11.7
2002-12-23 10:24:27 51°22.736 3°13.258 38.5 9.1 29.6 11.1
2002-12-23 10:25:27 51°22.89 3°13.431 47.7 12.4 39.7 10.4
2002-12-23 10:26:27 51°23.043 3°13.659 51 12.8 44 10.2
2002-12-23 10:27:26 51°23.196 3°13.89 51 13 44.5 10.3
2002-12-23 10:28:26 51°23.357 3°14.128 49.8 13.3 43 9.8
2002-12-23 10:29:26 51°23.519 3°14.361 48.7 13 41.2 10.4
2002-12-23 10:30:27 51°23.686 3°14.593 49.8 13 41.7 10.8
2002-12-23 10:31:28 51°23.85 3°14.826 49.5 13 41.7 11
2002-12-23 10:32:28 51°24.015 3°15.052 49.7 13 41.3 10.9
2002-12-23 10:33:26 51°24.174 3°15.269 48.8 13 40.2 10.5
2002-12-23 10:34:26 51°24.342 3°15.5 49 13.5 40.2 14.5
2002-12-23 10:35:27 51°24.512 3°15.743 48.8 13.6 41.1 -999
2002-12-23 10:36:28 51°24.684 3°15.993 49.3 13.8 41.7 14.1
2002-12-23 10:37:26 51°24.849 3°16.233 50 13.8 42.4 14
2002-12-23 10:38:28 51°25.013 3°16.499 50.5 13.5 45.8 13.4
2002-12-23 10:39:26 51°25.169 3°16.741 49.7 13.4 44.4 11.2
2002-12-23 10:40:27 51°25.328 3°16.997 49.2 13.4 44.5 9.5
2002-12-23 10:41:27 51°25.485 3°17.247 49.3 13.4 45.1 8.8
2002-12-23 10:42:27 51°25.637 3°17.5 48.8 12.5 44.7 8.5
2002-12-23 10:43:26 51°25.742 3°17.679 44.3 7.2 42.4 8.6
2002-12-23 10:44:26 51°25.819 3°17.776 51.8 5.2 50 8.4
2002-12-23 10:45:28 51°25.87 3°17.874 37.3 4 40.4 8.4
2002-12-23 10:46:28 51°25.892 3°17.912 56.5 0.7 87.5 8.4
2002-12-23 10:47:26 51°25.891 3°17.93 58.7 0.7 94.3 8.4
2002-12-23 10:48:26 51°25.89 3°17.948 59 0.7 94.9 8.5
2002-12-23 10:49:26 51°25.89 3°17.966 59.3 0.7 93.5 8.5
2002-12-23 10:50:42 51°25.889 3°17.987 60.2 0.6 97 8.5
2002-12-23 10:51:42 51°25.888 3°18.004 60.7 0.6 96.5 8.6
2002-12-23 10:52:42 51°25.932 3°18.023 340.7 5.5 338.2 8.4
2002-12-23 10:53:42 51°25.938 3°17.813 263.5 11.6 256 8
2002-12-23 10:54:40 51°25.901 3°17.496 270 12.8 262.4 7.5
2002-12-23 10:55:42 51°25.847 3°17.151 263.5 13.1 255.8 7.5
2002-12-23 10:56:42 51°25.839 3°16.807 277.7 13 270.3 7.9
2002-12-23 10:57:42 51°25.777 3°16.476 251.7 13.1 244.4 7.5
2002-12-23 10:58:42 51°25.699 3°16.155 272.8 13 264.5 7.7
2002-12-23 10:59:42 51°25.69 3°15.808 273.7 13.1 266.1 7.6
2002-12-23 11:00:42 51°25.639 3°15.468 268.3 13.2 259.8 7.6
2002-12-23 11:01:42 51°25.624 3°15.12 270.3 13.1 262.2 7.6
2002-12-23 11:02:50 51°25.586 3°14.727 273.7 13.2 264.6 7.7
2002-12-23 11:03:50 51°25.569 3°14.377 270.2 13.3 261.9 7.8
2002-12-23 11:04:50 51°25.536 3°14.024 275.5 13.4 266.4 8
2002-12-23 11:05:50 51°25.509 3°13.67 271.3 13.5 262.6 8.6
2002-12-23 11:06:50 51°25.485 3°13.313 270.3 13.5 262.2 8.8
2002-12-23 11:07:50 51°25.456 3°12.958 267.5 13.5 259.4 8.9
2002-12-23 11:08:50 51°25.41 3°12.604 267.2 13.6 258.9 9.1
2002-12-23 11:09:50 51°25.365 3°12.247 266.3 13.7 258.1 9.3
2002-12-23 11:10:51 51°25.321 3°11.882 267 13.7 258.5 9.5
2002-12-23 11:11:50 51°25.277 3°11.531 266.5 13.7 257.9 9.3
2002-12-23 11:12:51 51°25.23 3°11.168 266.7 13.7 258.1 8.9
2002-12-23 11:13:50 51°25.183 3°10.821 266 13.5 256.8 8.3
2002-12-23 11:14:50 51°25.132 3°10.472 268 13.4 258.5 8
2002-12-23 11:15:50 51°25.085 3°10.125 263.2 13.4 254.2 7.8
2002-12-23 11:16:50 51°25.044 3°9.778 269.5 13.2 259.9 7.5
2002-12-23 11:17:50 51°24.987 3°9.437 264.2 13.3 255.4 7.6
2002-12-23 11:18:50 51°24.945 3°9.088 269.8 13.4 260.9 7.9
2002-12-23 11:19:51 51°24.896 3°8.729 266.3 13.6 257.6 8.3
2002-12-23 11:20:50 51°24.919 3°8.382 294.2 13.3 284.4 8.4
2002-12-23 11:21:50 51°24.971 3°8.038 300.7 13.2 289.8 8.3
2002-12-23 11:22:51 51°25.071 3°7.728 305.8 12.9 295.2 7.9
2002-12-23 11:23:51 51°25.179 3°7.432 320.3 12.9 309.3 8.3
2002-12-23 11:24:51 51°25.358 3°7.266 356.3 12.5 347.1 9.1
2002-12-23 11:25:51 51°25.559 3°7.312 28 12.4 21.3 9.4
2002-12-23 11:26:51 51°25.731 3°7.493 43 12.5 39 9.5
2002-12-23 11:27:50 51°25.895 3°7.683 39 12.4 34.5 9.4
2002-12-23 11:28:50 51°26.067 3°7.864 36 12.3 31.8 9.3
2002-12-23 11:29:50 51°26.237 3°8.049 41.2 12.4 37.4 9.9
2002-12-23 11:30:50 51°26.382 3°8.232 38.7 8.3 37 10.6
2002-12-23 11:31:50 51°26.446 3°8.32 53.7 3 58.2 10.8
2002-12-23 11:32:50 51°26.438 3°8.346 91.8 1 195 10.8
2002-12-23 11:33:51 51°26.421 3°8.34 89.8 1 185.4 10.7
2002-12-23 11:34:50 51°26.405 3°8.341 77.5 0.9 171 8.3
2002-12-23 11:35:50 51°26.39 3°8.344 62.5 0.8 169.3 10.6
2002-12-23 11:36:50 51°26.398 3°8.363 16.3 2.5 15.4 10.8
2002-12-23 11:37:51 51°26.441 3°8.288 299.3 5.5 284.4 10.5
2002-12-23 11:38:50 51°26.484 3°8.085 305 9.2 292.4 10
2002-12-23 11:39:50 51°26.557 3°7.858 313.5 9.7 301.5 10.3
2002-12-23 11:40:50 51°26.645 3°7.641 313.5 9.8 302.4 10.8
2002-12-23 11:41:50 51°26.732 3°7.419 313.3 9.8 302.2 11.1
2002-12-23 11:42:50 51°26.819 3°7.198 312.3 9.9 301.6 11.6
2002-12-23 11:43:50 51°26.904 3°6.973 312.8 9.9 301.4 12.1
2002-12-23 11:44:51 51°26.992 3°6.746 313.2 9.9 301.8 12.4
2002-12-23 11:45:51 51°27.08 3°6.523 313.7 9.9 302.2 12.9
2002-12-23 11:46:51 51°27.166 3°6.297 312.5 10 300.8 13.2
2002-12-23 11:47:51 51°27.251 3°6.07 313.5 9.9 302.1 13.5
2002-12-23 11:48:51 51°27.339 3°5.843 312.3 10 301 13.9
2002-12-23 11:49:51 51°27.426 3°5.615 312.2 10.1 301 14.3
2002-12-23 11:50:51 51°27.514 3°5.384 312.7 10.2 301 14.9
2002-12-23 11:51:51 51°27.603 3°5.153 313.7 10.2 301.9 13.9
2002-12-23 11:52:51 51°27.691 3°4.922 312.7 10.2 300.9 14.1
2002-12-23 11:53:51 51°27.779 3°4.691 313.7 10.1 302.3 14
2002-12-23 11:54:51 51°27.867 3°4.462 313.7 10.1 302.3 13.3
2002-12-23 11:55:51 51°27.955 3°4.237 313.3 9.8 301.9 17.7
2002-12-23 11:56:51 51°28.041 3°4.02 312.2 9.6 301 19.2
2002-12-23 11:57:51 51°28.123 3°3.798 316.7 9.6 303.9 18.8
2002-12-23 11:58:51 51°28.206 3°3.62 317.7 6.6 303.2 21.5
2002-12-23 11:59:51 51°28.245 3°3.501 316.8 4.1 295.4 21.4
2002-12-23 12:00:51 51°28.264 3°3.437 342.2 1.7 293.9 23.1
2002-12-23 12:01:51 51°28.272 3°3.405 353.7 1.1 287.4 23.2
2002-12-23 12:02:51 51°28.275 3°3.378 354 1 276.9 23.3
2002-12-23 12:03:51 51°28.276 3°3.352 357.3 0.9 278.7 23.3
2002-12-23 12:04:51 51°28.287 3°3.328 2.2 1.2 318.1 23.4
2002-12-23 12:05:51 51°28.308 3°3.308 6.3 1.6 334.8 23.6
2002-12-23 12:06:51 51°28.335 3°3.292 9.3 1.8 343.5 23.6
2002-12-23 12:07:51 51°28.366 3°3.28 11 2 347.4 -999
2002-12-23 12:08:51 51°28.425 3°3.218 316.3 7 304.9 19.4
2002-12-23 12:09:51 51°28.398 3°2.918 257.3 14.1 251.7 24.4
2002-12-23 12:10:51 51°28.325 3°2.545 259.5 14.8 253.1 24.3
2002-12-23 12:11:51 51°28.256 3°2.165 261.2 14.8 254.8 24.1
2002-12-23 12:12:51 51°28.19 3°1.783 260.7 14.8 254.5 24.1
2002-12-23 12:13:51 51°28.122 3°1.403 260.7 14.8 254.8 23.5
2002-12-23 12:14:51 51°28.054 3°1.023 260.2 14.8 253.8 22.2
2002-12-23 12:15:51 51°27.985 3°0.648 261.3 14.5 254 21.4
2002-12-23 12:16:51 51°27.92 3°0.275 262 14.5 254.8 21.7
2002-12-23 12:17:51 51°27.857 2°59.902 262 14.4 254.6 19.5
2002-12-23 12:18:51 51°27.788 2°59.53 261.5 14.6 254.2 19.8
2002-12-23 12:19:51 51°27.72 2°59.156 261 14.6 253.6 19.4
2002-12-23 12:20:51 51°27.653 2°58.782 261.2 14.5 253.9 19.3
2002-12-23 12:21:51 51°27.586 2°58.41 261.3 14.5 254.1 20.1
2002-12-23 12:22:51 51°27.519 2°58.037 260.7 14.6 254.1 23
2002-12-23 12:23:51 51°27.453 2°57.659 261.7 14.7 254.7 24.4
2002-12-23 12:24:51 51°27.386 2°57.281 260.5 14.8 254.2 26
2002-12-23 12:25:51 51°27.32 2°56.901 261.5 14.8 254.9 23.4
2002-12-23 12:26:51 51°27.254 2°56.522 260.8 14.8 254.4 25.3
2002-12-23 12:27:51 51°27.188 2°56.141 260.2 14.9 254 28.9
2002-12-23 12:28:51 51°27.124 2°55.757 261.8 14.8 255.7 31.1
2002-12-23 12:29:51 51°27.06 2°55.376 260.7 14.8 255 29.2
2002-12-23 12:30:51 51°26.994 2°54.998 259.8 14.7 253.9 27.9
2002-12-23 12:31:51 51°26.933 2°54.62 260.7 14.6 255.5 28.2
2002-12-23 12:32:51 51°26.872 2°54.245 260.5 14.5 254.7 25.1
2002-12-23 12:33:51 51°26.811 2°53.871 260.7 14.5 256 28.1
2002-12-23 12:34:51 51°26.755 2°53.495 260.3 14.5 255.7 28.6
2002-12-23 12:35:51 51°26.701 2°53.122 261 14.4 256.9 31.2
2002-12-23 12:36:51 51°26.647 2°52.75 260.7 14.3 256.7 29.4
2002-12-23 12:37:51 51°26.594 2°52.381 261.7 14.2 257.5 24.3
2002-12-23 12:38:51 51°26.542 2°52.013 260.8 14.2 256.7 27.8
2002-12-23 12:39:50 51°26.489 2°51.653 261.7 14 257.6 18.7
2002-12-23 12:40:51 51°26.436 2°51.283 260.8 14 257.1 27.9
2002-12-23 12:41:50 51°26.385 2°50.927 261 13.9 256.9 24.6
2002-12-23 12:42:50 51°26.327 2°50.573 261 13.7 255.3 24.8
2002-12-23 12:43:50 51°26.27 2°50.216 262 13.9 255.7 25
2002-12-23 12:44:50 51°26.213 2°49.859 261.8 13.8 255.6 24.6
2002-12-23 12:45:50 51°26.157 2°49.503 261.7 13.8 255.7 24.7
2002-12-23 12:46:50 51°26.102 2°49.146 261.5 13.8 255.9 25.1
2002-12-23 12:47:50 51°26.06 2°48.871 268 8.3 261.2 25
2002-12-23 12:48:51 51°26.03 2°48.702 260.5 5.6 252.6 25.3
2002-12-23 12:49:50 51°26.023 2°48.586 280.8 3.6 272 25.4
2002-12-23 12:50:51 51°26.026 2°48.547 314.2 0.3 164.3 25.3
2002-12-23 12:51:51 51°26.025 2°48.547 321.2 0.1 317 25.2
2002-12-23 12:52:51 51°26.027 2°48.545 328 0.2 330.7 25.3
2002-12-23 12:53:50 51°26.032 2°48.541 333.7 0.3 336.9 25.2
2002-12-23 12:54:50 51°26.037 2°48.538 336.7 0.4 346.9 25.3
2002-12-23 12:55:50 51°26.057 2°48.515 314.8 4.9 312.9 25.4
2002-12-23 12:56:51 51°25.992 2°48.307 212.3 12.2 208.3 25
2002-12-23 12:57:50 51°25.786 2°48.189 203 13.8 197.6 25.2
2002-12-23 12:58:51 51°25.573 2°48.044 211.3 13.7 205.7 25.4
2002-12-23 12:59:51 51°25.376 2°47.871 217.2 13.4 214.5 28.5
2002-12-23 13:00:57 51°25.167 2°47.671 213 13.3 209.6 28.5
2002-12-23 13:01:57 51°24.977 2°47.493 212.3 13.1 209.9 30.1
2002-12-23 13:02:57 51°24.793 2°47.302 222.8 13.1 219.3 32.3
2002-12-23 13:03:57 51°24.645 2°47.04 231.2 13.3 229.2 32.2
2002-12-23 13:04:57 51°24.499 2°46.774 230.7 13.3 228.8 32
2002-12-23 13:05:57 51°24.354 2°46.51 230.5 13.2 228.1 29
2002-12-23 13:06:57 51°24.207 2°46.251 229.8 13.2 228 28.7
2002-12-23 13:07:57 51°24.06 2°45.992 230.8 13.2 228.6 29.8
2002-12-23 13:08:57 51°23.928 2°45.711 236.7 13.2 234.2 29
2002-12-23 13:09:57 51°23.798 2°45.43 234.5 13.1 231.9 28.8
2002-12-23 13:10:57 51°23.667 2°45.152 234.7 12.9 232.7 28.2
2002-12-23 13:11:57 51°23.534 2°44.874 234.8 13.2 232.4 28.4
2002-12-23 13:12:57 51°23.4 2°44.599 235.2 13.1 232.3 29.6
2002-12-23 13:13:57 51°23.268 2°44.323 236.5 13.1 233.2 29.8
2002-12-23 13:14:55 51°23.138 2°44.06 233.8 13.1 230.7 27.3
2002-12-23 13:15:55 51°23.003 2°43.786 235.5 13.1 231.9 28.8
2002-12-23 13:16:57 51°22.866 2°43.504 237.2 13 233.3 28.2
2002-12-23 13:17:55 51°22.738 2°43.242 233.2 12.8 229 25.5
2002-12-23 13:18:57 51°22.592 2°42.978 232.2 12.7 227.7 28.8
2002-12-23 13:19:57 51°22.448 2°42.726 232 12.8 227.4 26.5
2002-12-23 13:20:55 51°22.312 2°42.482 233.2 12.7 228.7 28.7
2002-12-23 13:21:57 51°22.168 2°42.215 233.7 12.7 229.3 29.6
2002-12-23 13:22:57 51°22.027 2°41.96 232.7 12.8 228.4 29.2
2002-12-23 13:23:57 51°21.886 2°41.705 233.3 12.9 228.7 27.7
2002-12-23 13:24:57 51°21.746 2°41.448 233.5 12.8 229 29.9
2002-12-23 13:25:57 51°21.605 2°41.195 231.8 12.7 227.7 26.7
2002-12-23 13:26:57 51°21.479 2°40.927 248 12.6 243.3 26.5
2002-12-23 13:27:57 51°21.435 2°40.598 263.5 12.8 261.6 30.5
2002-12-23 13:28:57 51°21.4 2°40.263 259.8 12.8 257.6 29.7
2002-12-23 13:29:56 51°21.352 2°39.94 259.2 12.7 256.9 28.7
2002-12-23 13:30:56 51°21.301 2°39.613 258 12.6 256 28.2
2002-12-23 13:31:56 51°21.249 2°39.286 258.8 12.7 256 27.9
2002-12-23 13:32:57 51°21.198 2°38.953 258.5 12.5 255.9 27.8
2002-12-23 13:33:57 51°21.146 2°38.628 258.5 12.6 255.5 27.6
2002-12-23 13:34:57 51°21.093 2°38.303 257.5 12.6 254.8 26.9
2002-12-23 13:35:56 51°21.042 2°37.983 258.5 12.6 256.2 27
2002-12-23 13:36:57 51°20.99 2°37.654 258.2 12.5 255.8 27.3
2002-12-23 13:37:57 51°20.939 2°37.331 257.5 12.5 255.5 26.7
2002-12-23 13:38:57 51°20.887 2°37.008 258.2 12.5 256.2 25
2002-12-23 13:39:55 51°20.837 2°36.697 257.2 12.5 254.5 25.3
2002-12-23 13:40:57 51°20.784 2°36.365 257.5 12.4 255.2 24.3
2002-12-23 13:41:57 51°20.733 2°36.048 256.8 12.2 254.9 25.1
2002-12-23 13:42:55 51°20.683 2°35.741 258 12.4 256 28.9
2002-12-23 13:43:57 51°20.639 2°35.406 259.7 12.4 259 29.7
2002-12-23 13:44:55 51°20.599 2°35.091 258.3 12.5 257.6 32.7
2002-12-23 13:45:57 51°20.558 2°34.751 258.3 12.7 258 34.8
2002-12-23 13:46:56 51°20.518 2°34.426 258.7 12.6 259.1 33.6
2002-12-23 13:47:57 51°20.477 2°34.088 259.3 12.8 259.4 34.4
2002-12-23 13:48:57 51°20.438 2°33.753 258.5 12.9 258.8 33.6
2002-12-23 13:49:57 51°20.396 2°33.417 259.3 12.9 259.7 33.8
2002-12-23 13:50:55 51°20.357 2°33.094 259 12.8 259.1 33.4
2002-12-23 13:51:57 51°20.314 2°32.75 259.8 12.8 259 32.7
2002-12-23 13:52:56 51°20.275 2°32.423 258.2 12.8 258.1 33.2
2002-12-23 13:53:56 51°20.23 2°32.092 259.3 12.8 258.2 32.8
2002-12-23 13:54:57 51°20.181 2°31.761 260.2 12.6 257.7 32.2
2002-12-23 13:55:56 51°20.135 2°31.44 259.5 12.5 256.9 26.5
2002-12-23 13:56:56 51°20.091 2°31.118 261.3 12.4 258.3 23.5
2002-12-23 13:57:57 51°20.059 2°30.791 267.3 12.2 264.9 17.7
2002-12-23 13:58:56 51°20.041 2°30.479 269.2 11.9 266.1 16.8
2002-12-23 13:59:56 51°20.034 2°30.274 277 5.6 278.5 15.9
2002-12-23 14:00:56 51°20.05 2°30.152 277 4.5 282.2 15.9
2002-12-23 14:01:56 51°20.059 2°30.042 269.3 3.6 274.5 15.4
2002-12-23 14:02:56 51°20.066 2°29.997 280.7 1.1 342.8 17.8
2002-12-23 14:03:56 51°20.086 2°30.001 280.5 1.2 18.2 17.7
2002-12-23 14:04:57 51°20.102 2°30.021 263 1.4 49.6 15.1
2002-12-23 14:05:56 51°20.116 2°30.055 249.8 1.5 60 14.6
2002-12-23 14:06:57 51°20.124 2°30.084 231.7 1.1 70.4 17.1
2002-12-23 14:07:57 51°20.117 2°30.1 221.3 2.4 192.8 13.9
2002-12-23 14:08:56 51°20 2°30.105 176.7 11.1 162.5 12.8
2002-12-23 14:09:56 51°19.832 2°30.349 140 14.6 128.4 15.3
2002-12-23 14:10:56 51°19.68 2°30.655 140.7 14.6 130 19.7
2002-12-23 14:11:57 51°19.52 2°30.949 142.2 14.2 131.7 29.6
2002-12-23 14:12:56 51°19.369 2°31.232 140.2 14.2 130 32.3
2002-12-23 14:13:56 51°19.218 2°31.518 143 14 131.4 32.7
2002-12-23 14:14:56 51°19.064 2°31.795 141.5 13.9 129.7 32.8
2002-12-23 14:15:54 51°18.92 2°32.066 142.5 13.9 129.5 32.5
2002-12-23 14:16:56 51°18.767 2°32.356 142.2 13.8 130 33.2
2002-12-23 14:17:56 51°18.615 2°32.635 142 14 130.6 30.5
2002-12-23 14:18:56 51°18.466 2°32.919 141.7 13.9 130.3 27.2
2002-12-23 14:19:57 51°18.311 2°33.204 142 14 130.9 22.5
2002-12-23 14:20:56 51°18.16 2°33.483 142.3 14.2 131.5 -999
2002-12-23 14:21:57 51°18.006 2°33.775 140.7 14.2 130 28.9
2002-12-23 14:22:56 51°17.854 2°34.056 142 14.3 130.9 30.5
2002-12-23 14:23:55 51°17.704 2°34.34 137.7 14.3 127.2 25.9
2002-12-23 14:24:57 51°17.566 2°34.665 137 14.3 124 13.2
2002-12-23 14:25:56 51°17.431 2°34.98 137.3 14.6 125.9 14.2
2002-12-23 14:26:56 51°17.291 2°35.298 136 14.7 126 13.1
2002-12-23 14:28:00 51°17.139 2°35.637 135.3 14.7 125 17.4
2002-12-23 14:29:00 51°16.997 2°35.952 134.8 14.5 124.8 26.1
2002-12-23 14:29:58 51°16.866 2°36.256 136 14.3 125.3 29.1
2002-12-23 14:31:00 51°16.782 2°36.547 127.7 8.7 110.7 29.5
2002-12-23 14:31:59 51°16.721 2°36.667 172.2 4.5 145.9 29.2
2002-12-23 14:33:00 51°16.663 2°36.72 176.3 3.7 149.3 28.8
2002-12-23 14:34:01 51°16.618 2°36.737 208 2.2 180.9 29
2002-12-23 14:35:00 51°16.614 2°36.755 203.5 1 63.8 29.1
2002-12-23 14:35:59 51°16.621 2°36.776 206.2 1 59.4 29
2002-12-23 14:36:59 51°16.63 2°36.801 199.8 1.1 58.7 29
2002-12-23 14:38:00 51°16.641 2°36.828 198.7 1.2 54.3 29.1
2002-12-23 14:39:00 51°16.654 2°36.855 199.2 1.3 52.4 29.3
2002-12-23 14:39:59 51°16.668 2°36.882 198.2 1.4 50.2 29
2002-12-23 14:41:00 51°16.653 2°36.908 182.8 4.5 163.1 29.2
2002-12-23 14:41:59 51°16.517 2°37.032 160.5 12.5 147.8 29.4
2002-12-23 14:43:00 51°16.324 2°37.2 165.2 13.1 153.8 27.6
2002-12-23 14:44:00 51°16.128 2°37.356 162.3 13.1 151.7 16.6
2002-12-23 14:45:00 51°15.931 2°37.516 164.5 13.4 154.9 13.3
2002-12-23 14:45:59 51°15.732 2°37.67 164.5 13.7 154.7 12.2
2002-12-23 14:47:00 51°15.523 2°37.825 165.5 13.6 156.1 12.6
2002-12-23 14:48:00 51°15.318 2°37.981 163.5 13.7 154.1 13.4
2002-12-23 14:49:00 51°15.112 2°38.136 162.8 13.8 154.1 15.6
2002-12-23 14:50:00 51°14.908 2°38.301 161.3 13.7 152.8 18.7
2002-12-23 14:51:00 51°14.708 2°38.468 160.8 13.6 151.6 8.6
2002-12-23 14:52:00 51°14.506 2°38.626 162.3 13.4 153.3 20
2002-12-23 14:53:00 51°14.305 2°38.787 161.7 13.5 153.3 18.2
2002-12-23 14:54:00 51°14.104 2°38.949 162.7 13.6 154.5 14.9
2002-12-23 14:55:00 51°13.902 2°39.118 157.2 13.8 149.9 17
2002-12-23 14:56:00 51°13.711 2°39.315 153.7 13.7 145.9 17.1
2002-12-23 14:57:00 51°13.521 2°39.518 154.2 13.8 145.6 -999
2002-12-23 14:58:00 51°13.329 2°39.716 155.3 13.7 147.5 17.1
2002-12-23 14:59:00 51°13.14 2°39.919 153.2 13.7 144.6 14.3
2002-12-23 15:00:00 51°12.954 2°40.125 154.3 13.7 146.2 15.9
2002-12-23 15:01:00 51°12.764 2°40.316 152.8 13.5 144.6 15.3
2002-12-23 15:01:59 51°12.588 2°40.529 151.2 13.7 143.6 14.5
2002-12-23 15:03:00 51°12.405 2°40.752 148.3 13.6 140.9 13.1
2002-12-23 15:04:00 51°12.226 2°40.968 156 13.3 147.2 12
2002-12-23 15:05:00 51°12.021 2°41.095 168.5 13.1 162 10.9
2002-12-23 15:05:58 51°11.82 2°41.206 165.5 13.4 157.9 13.9
2002-12-23 15:07:00 51°11.604 2°41.349 168.2 13.3 158 13
2002-12-23 15:08:00 51°11.399 2°41.478 168.3 13.4 158.5 13.4
2002-12-23 15:09:00 51°11.214 2°41.598 167.3 10.4 156.2 14.9
2002-12-23 15:10:00 51°11.113 2°41.782 120.5 8.5 110.1 14.9
2002-12-23 15:11:00 51°11.11 2°41.975 90.8 6.4 80.8 13.2
2002-12-23 15:12:00 51°11.135 2°42.074 49.3 1.5 53.9 15
2002-12-23 15:12:58 51°11.134 2°42.086 30.8 0.6 86.5 13.9
2002-12-23 15:14:01 51°11.139 2°42.104 27 0.8 57.9 15
2002-12-23 15:15:01 51°11.149 2°42.123 24 1 49.3 15
2002-12-23 15:15:59 51°11.161 2°42.143 22.7 1.2 43.3 14.9
2002-12-23 15:17:01 51°11.196 2°42.179 26.3 5.7 27.6 14.7
2002-12-23 15:18:01 51°11.313 2°42.444 72.8 14.6 67.7 14.4
2002-12-23 15:19:00 51°11.396 2°42.813 82 15.2 75.5 14.1
2002-12-23 15:20:01 51°11.441 2°43.215 86.3 15.2 80.1 14.5
2002-12-23 15:20:59 51°11.481 2°43.596 86.8 15.1 80.6 14.9
2002-12-23 15:22:01 51°11.528 2°44.004 86 15.1 79.3 12.9
2002-12-23 15:23:01 51°11.575 2°44.397 86.8 15.1 80.1 15.4
2002-12-23 15:24:01 51°11.625 2°44.788 84.3 15 77.3 12.7
2002-12-23 15:25:01 51°11.681 2°45.177 83.7 15.1 76.5 11.9
2002-12-23 15:26:01 51°11.742 2°45.564 81.5 15.1 74.3 13.3
2002-12-23 15:27:01 51°11.811 2°45.946 79.5 14.9 72.6 15.4
2002-12-23 15:28:01 51°11.886 2°46.323 80.2 14.9 72.9 15.5
2002-12-23 15:29:01 51°11.96 2°46.704 78.3 15.1 71.1 15.4
2002-12-23 15:30:01 51°12.039 2°47.084 79.3 15.1 71.5 15.3
2002-12-23 15:31:01 51°12.117 2°47.466 80.5 15.1 72.1 15.2
2002-12-23 15:32:01 51°12.218 2°47.832 70.7 15.1 63.4 12.3
2002-12-23 15:32:59 51°12.334 2°48.174 69.5 15.2 61.9 -999
2002-12-23 15:34:01 51°12.456 2°48.542 69 15.2 61.6 13.3
2002-12-23 15:35:01 51°12.574 2°48.898 69.7 15.2 62.1 14.5
2002-12-23 15:36:01 51°12.694 2°49.253 70 15.2 62 14.3
2002-12-23 15:37:01 51°12.811 2°49.61 70 15.2 62.3 14.2
2002-12-23 15:38:01 51°12.928 2°49.969 70.8 15.3 63.3 14
2002-12-23 15:39:01 51°13.047 2°50.325 69.5 15.3 61.4 13.9
2002-12-23 15:40:01 51°13.165 2°50.682 70.3 15.1 62.4 13.7
2002-12-23 15:40:59 51°13.279 2°51.024 69.7 15.1 61.7 13.6
2002-12-23 15:42:01 51°13.403 2°51.389 68.3 15.2 60.7 13.4
2002-12-23 15:43:01 51°13.527 2°51.739 68.8 15.1 61.2 13.1
2002-12-23 15:44:01 51°13.651 2°52.088 68 15.2 60.3 13.1
2002-12-23 15:45:01 51°13.777 2°52.438 68.8 15.2 61 13
2002-12-23 15:46:01 51°13.901 2°52.79 68.7 15.3 60.7 12.8
2002-12-23 15:47:01 51°14.025 2°53.141 67.2 15.2 59.4 12.4
2002-12-23 15:48:01 51°14.153 2°53.487 67.3 15.1 59.1 12
2002-12-23 15:49:01 51°14.277 2°53.829 68.5 14.8 60.7 11.9
2002-12-23 15:50:01 51°14.39 2°54.172 72.7 14.3 64.9 11.2
2002-12-23 15:51:01 51°14.449 2°54.519 94.3 13.4 84.5 12.7
2002-12-23 15:52:01 51°14.418 2°54.861 119.2 12.8 108.9 12.9
2002-12-23 15:52:59 51°14.324 2°55.133 129.8 11.9 124.2 12.8
2002-12-23 15:54:01 51°14.186 2°55.367 146.8 11.5 141.8 12.6
2002-12-23 15:55:00 51°14.046 2°55.475 162.2 8.3 157.4 12.5
2002-12-23 15:56:01 51°13.929 2°55.553 160.8 7.2 156.1 12.8